createdAt,value
2022-07-31T00:00:35.564Z,1003.504395
2022-07-31T00:01:30.846Z,1003.579529
2022-07-31T00:02:34.948Z,1003.544556
2022-07-31T00:05:14.554Z,1003.543152
2022-07-31T00:07:33.548Z,1003.536743
2022-07-31T00:09:53.034Z,1003.496643
2022-07-31T00:09:53.331Z,1003.496643
2022-07-31T00:09:53.885Z,1003.496643
2022-07-31T00:10:16.779Z,1003.515137
2022-07-31T00:11:17.754Z,1003.528564
2022-07-31T00:12:12.463Z,1003.525757
2022-07-31T00:13:10.649Z,1003.528381
2022-07-31T00:14:09.396Z,1003.522827
2022-07-31T00:15:03.750Z,1003.508911
2022-07-31T00:16:01.327Z,1003.551697
2022-07-31T00:17:00.110Z,1003.546265
2022-07-31T00:17:53.142Z,1003.543579
2022-07-31T00:18:53.126Z,1003.505859
2022-07-31T00:19:46.734Z,1003.5672
2022-07-31T00:20:48.319Z,1003.502319
2022-07-31T00:21:43.687Z,1003.472839
2022-07-31T00:22:42.503Z,1003.475342
2022-07-31T00:24:38.917Z,1003.451233
2022-07-31T00:25:33.265Z,1003.378418
2022-07-31T00:26:31.086Z,1003.407959
2022-07-31T00:27:15.664Z,1003.47467
2022-07-31T00:29:20.731Z,1003.367188
2022-07-31T00:30:11.801Z,1003.399231
2022-07-31T00:31:12.560Z,1003.404358
2022-07-31T00:32:04.025Z,1003.43396
2022-07-31T00:33:57.619Z,1003.426086
2022-07-31T00:34:55.957Z,1003.420532
2022-07-31T00:35:51.364Z,1003.3078
2022-07-31T00:36:50.589Z,1003.339844
2022-07-31T00:37:46.936Z,1003.344971
2022-07-31T00:38:40.113Z,1003.355713
2022-07-31T00:39:39.319Z,1003.387634
2022-07-31T00:40:36.442Z,1003.384949
2022-07-31T00:41:36.512Z,1003.451904
2022-07-31T00:42:34.226Z,1003.368408
2022-07-31T00:44:19.466Z,1003.315186
2022-07-31T00:44:59.177Z,1003.355713
2022-07-31T00:45:59.232Z,1003.280457
2022-07-31T00:47:00.037Z,1003.27533
2022-07-31T00:48:54.346Z,1003.264282
2022-07-31T00:49:55.579Z,1003.285645
2022-07-31T00:50:50.326Z,1003.274597
2022-07-31T00:51:49.815Z,1003.271545
2022-07-31T00:52:48.818Z,1003.19635
2022-07-31T00:53:54.760Z,1003.244385
2022-07-31T00:54:53.947Z,1003.225464
2022-07-31T00:55:51.541Z,1003.292175
2022-07-31T00:56:48.199Z,1003.187683
2022-07-31T00:57:47.159Z,1003.222412
2022-07-31T00:58:46.291Z,1003.225159
2022-07-31T00:59:51.214Z,1003.160522
2022-07-31T01:00:50.367Z,1003.138916
2022-07-31T01:01:45.799Z,1003.130615
2022-07-31T01:02:51.922Z,1003.176331
2022-07-31T01:04:46.661Z,1003.226807
2022-07-31T01:05:42.145Z,1003.186279
2022-07-31T01:06:45.490Z,1003.127197
2022-07-31T01:07:41.433Z,1003.129639
2022-07-31T01:08:43.805Z,1003.164673
2022-07-31T01:09:43.648Z,1003.17218
2022-07-31T01:10:42.191Z,1003.148071
2022-07-31T01:11:45.151Z,1003.123657
2022-07-31T01:12:37.874Z,1003.115784
2022-07-31T01:13:41.416Z,1003.148071
2022-07-31T01:14:33.135Z,1003.150452
2022-07-31T01:15:38.637Z,1003.137024
2022-07-31T01:16:33.052Z,1003.067322
2022-07-31T01:17:37.233Z,1003.126404
2022-07-31T01:19:38.256Z,1003.137451
2022-07-31T01:19:42.231Z,1003.137451
2022-07-31T01:20:29.060Z,1003.091797
2022-07-31T01:21:35.873Z,1003.140259
2022-07-31T01:22:39.432Z,1003.073303
2022-07-31T01:23:42.501Z,1003.057007
2022-07-31T01:23:50.980Z,1003.057007
2022-07-31T01:23:55.018Z,1003.057007
2022-07-31T01:25:41.600Z,1003.129639
2022-07-31T01:26:23.496Z,1003.151245
2022-07-31T01:27:22.232Z,1003.175964
2022-07-31T01:28:26.111Z,1003.161865
2022-07-31T01:29:25.115Z,1003.11615
2022-07-31T01:30:36.600Z,1003.204041
2022-07-31T01:31:34.603Z,1003.128723
2022-07-31T01:32:33.781Z,1003.090942
2022-07-31T01:33:35.757Z,1002.986572
2022-07-31T01:34:33.594Z,1003.117371
2022-07-31T01:35:34.531Z,1003.050293
2022-07-31T01:36:35.804Z,1003.087646
2022-07-31T01:37:39.537Z,1003.004211
2022-07-31T01:38:37.463Z,1003.03656
2022-07-31T01:39:41.285Z,1003.014832
2022-07-31T01:40:39.668Z,1003.036072
2022-07-31T01:41:42.659Z,1003.017578
2022-07-31T01:42:40.484Z,1003.001404
2022-07-31T01:43:46.310Z,1002.993103
2022-07-31T01:44:40.511Z,1003.057373
2022-07-31T01:45:44.390Z,1003.057373
2022-07-31T01:46:44.072Z,1003.076172
2022-07-31T01:47:44.410Z,1003.059998
2022-07-31T01:49:44.104Z,1003.035645
2022-07-31T01:50:43.870Z,1002.952515
2022-07-31T01:51:43.266Z,1003.006042
2022-07-31T01:52:41.308Z,1002.997803
2022-07-31T01:53:43.095Z,1002.941895
2022-07-31T01:54:49.816Z,1002.965454
2022-07-31T01:56:02.086Z,1002.96814
2022-07-31T01:56:02.106Z,1002.96814
2022-07-31T01:56:02.172Z,1002.96814
2022-07-31T01:56:51.516Z,1002.979248
2022-07-31T01:57:54.338Z,1003.003723
2022-07-31T01:59:54.737Z,1003.012024
2022-07-31T02:00:58.509Z,1002.979675
2022-07-31T02:01:59.394Z,1002.944702
2022-07-31T02:03:42.821Z,1002.912354
2022-07-31T02:03:43.324Z,1002.912354
2022-07-31T02:03:43.765Z,1002.912354
2022-07-31T02:04:07.439Z,1002.979675
2022-07-31T02:05:11.618Z,1002.975098
2022-07-31T02:06:13.996Z,1003.007324
2022-07-31T02:07:10.639Z,1003.03656
2022-07-31T02:09:09.829Z,1002.902161
2022-07-31T02:10:13.891Z,1002.931702
2022-07-31T02:11:08.506Z,1002.920654
2022-07-31T02:12:09.530Z,1002.88562
2022-07-31T02:13:08.255Z,1002.947449
2022-07-31T02:14:10.429Z,1002.888306
2022-07-31T02:15:08.787Z,1002.826538
2022-07-31T02:16:10.435Z,1002.904053
2022-07-31T02:17:05.588Z,1002.890259
2022-07-31T02:19:04.775Z,1002.828735
2022-07-31T02:20:05.925Z,1002.780334
2022-07-31T02:21:03.360Z,1002.905945
2022-07-31T02:22:05.968Z,1002.836243
2022-07-31T02:23:00.506Z,1002.772034
2022-07-31T02:25:00.903Z,1002.828308
2022-07-31T02:26:01.829Z,1002.777161
2022-07-31T02:26:57.448Z,1002.814514
2022-07-31T02:28:01.790Z,1002.779846
2022-07-31T02:30:02.294Z,1002.790466
2022-07-31T02:30:54.949Z,1002.790466
2022-07-31T02:32:03.087Z,1002.72876
2022-07-31T02:32:05.368Z,1002.72876
2022-07-31T02:32:11.575Z,1002.72876
2022-07-31T02:32:53.888Z,1002.734192
2022-07-31T02:33:49.136Z,1002.780334
2022-07-31T02:34:53.860Z,1002.780334
2022-07-31T02:35:48.305Z,1002.764221
2022-07-31T02:36:50.061Z,1002.766541
2022-07-31T02:37:50.208Z,1002.742493
2022-07-31T02:39:49.950Z,1002.747498
2022-07-31T02:41:13.810Z,1002.653442
2022-07-31T02:41:59.988Z,1002.648438
2022-07-31T02:42:59.474Z,1002.643311
2022-07-31T02:44:56.557Z,1002.736877
2022-07-31T02:46:08.585Z,1002.723145
2022-07-31T02:47:04.832Z,1002.645569
2022-07-31T02:48:05.095Z,1002.672363
2022-07-31T02:49:01.742Z,1002.58374
2022-07-31T02:50:03.872Z,1002.527893
2022-07-31T02:51:03.345Z,1002.586975
2022-07-31T02:52:03.918Z,1002.560181
2022-07-31T02:52:59.313Z,1002.597473
2022-07-31T02:54:56.425Z,1002.538513
2022-07-31T02:55:58.599Z,1002.592041
2022-07-31T02:56:53.833Z,1002.532959
2022-07-31T02:57:57.302Z,1002.559692
2022-07-31T02:59:54.832Z,1002.588928
2022-07-31T03:00:51.560Z,1002.570313
2022-07-31T03:01:54.589Z,1002.580933
2022-07-31T03:02:49.117Z,1002.527405
2022-07-31T03:03:49.110Z,1002.567627
2022-07-31T03:04:45.363Z,1002.559692
2022-07-31T03:05:44.956Z,1002.535339
2022-07-31T03:06:40.598Z,1002.519226
2022-07-31T03:07:43.670Z,1002.484558
2022-07-31T03:09:36.537Z,1002.50061
2022-07-31T03:10:31.764Z,1002.438904
2022-07-31T03:11:31.808Z,1002.521851
2022-07-31T03:12:33.213Z,1002.460144
2022-07-31T03:13:36.393Z,1002.492432
2022-07-31T03:14:32.883Z,1002.468384
2022-07-31T03:15:32.788Z,1002.452209
2022-07-31T03:16:30.814Z,1002.476257
2022-07-31T03:17:38.028Z,1002.51123
2022-07-31T03:17:40.666Z,1002.51123
2022-07-31T03:17:40.991Z,1002.51123
2022-07-31T03:18:32.707Z,1002.495605
2022-07-31T03:19:28.051Z,1002.474365
2022-07-31T03:20:32.109Z,1002.527893
2022-07-31T03:21:27.684Z,1002.554688
2022-07-31T03:22:25.463Z,1002.509033
2022-07-31T03:25:21.541Z,1002.544556
2022-07-31T03:25:59.504Z,1002.507507
2022-07-31T03:26:59.691Z,1002.518616
2022-07-31T03:27:56.943Z,1002.53717
2022-07-31T03:28:55.127Z,1002.513123
2022-07-31T03:29:49.858Z,1002.550476
2022-07-31T03:30:51.800Z,1002.520569
2022-07-31T03:32:00.854Z,1002.512634
2022-07-31T03:33:02.797Z,1002.528748
2022-07-31T03:35:08.753Z,1002.485962
2022-07-31T03:36:05.607Z,1002.533936
2022-07-31T03:37:16.038Z,1002.552429
2022-07-31T03:39:09.460Z,1002.523254
2022-07-31T03:40:08.637Z,1002.541809
2022-07-31T03:41:06.151Z,1002.568604
2022-07-31T03:42:18.452Z,1002.49646
2022-07-31T03:42:18.947Z,1002.49646
2022-07-31T03:43:11.144Z,1002.60907
2022-07-31T03:44:04.564Z,1002.446228
2022-07-31T03:45:06.474Z,1002.513489
2022-07-31T03:45:59.277Z,1002.443848
2022-07-31T03:47:05.241Z,1002.424988
2022-07-31T03:47:59.425Z,1002.486694
2022-07-31T03:48:58.966Z,1002.529663
2022-07-31T03:50:06.707Z,1002.486694
2022-07-31T03:51:06.249Z,1002.470642
2022-07-31T03:52:06.386Z,1002.438293
2022-07-31T03:52:11.978Z,1002.438293
2022-07-31T03:53:04.528Z,1002.417053
2022-07-31T03:55:03.536Z,1002.385132
2022-07-31T03:55:56.487Z,1002.315491
2022-07-31T03:56:55.839Z,1002.393127
2022-07-31T03:57:56.260Z,1002.385132
2022-07-31T03:59:55.939Z,1002.414368
2022-07-31T04:00:49.137Z,1002.457275
2022-07-31T04:02:00.305Z,1002.48407
2022-07-31T04:03:50.754Z,1002.431274
2022-07-31T04:04:31.758Z,1002.404846
2022-07-31T04:05:33.999Z,1002.407959
2022-07-31T04:06:36.798Z,1002.480164
2022-07-31T04:07:33.189Z,1002.501404
2022-07-31T04:08:34.081Z,1002.547058
2022-07-31T04:09:30.586Z,1002.514709
2022-07-31T04:10:37.191Z,1002.562805
2022-07-31T04:11:38.321Z,1002.581299
2022-07-31T04:12:38.389Z,1002.618774
2022-07-31T04:13:40.339Z,1002.589539
2022-07-31T04:14:43.119Z,1002.59198
2022-07-31T04:15:39.384Z,1002.61322
2022-07-31T04:16:44.104Z,1002.567871
2022-07-31T04:17:38.581Z,1002.610779
2022-07-31T04:19:43.652Z,1002.546631
2022-07-31T04:20:47.161Z,1002.643127
2022-07-31T04:21:45.678Z,1002.600159
2022-07-31T04:22:51.711Z,1002.59198
2022-07-31T04:23:52.967Z,1002.560059
2022-07-31T04:24:52.142Z,1002.595093
2022-07-31T04:25:51.380Z,1002.549377
2022-07-31T04:26:52.745Z,1002.533264
2022-07-31T04:27:50.513Z,1002.533264
2022-07-31T04:29:48.739Z,1002.504089
2022-07-31T04:30:52.194Z,1002.466736
2022-07-31T04:31:52.466Z,1002.536377
2022-07-31T04:32:56.557Z,1002.501404
2022-07-31T04:34:54.510Z,1002.469543
2022-07-31T04:35:52.418Z,1002.52063
2022-07-31T04:36:53.531Z,1002.536743
2022-07-31T04:37:50.613Z,1002.582092
2022-07-31T04:40:00.549Z,1002.558777
2022-07-31T04:40:41.934Z,1002.580444
2022-07-31T04:41:41.199Z,1002.521729
2022-07-31T04:42:42.679Z,1002.521729
2022-07-31T04:44:43.746Z,1002.56427
2022-07-31T04:45:45.743Z,1002.566711
2022-07-31T04:46:42.108Z,1002.505127
2022-07-31T04:47:43.650Z,1002.590698
2022-07-31T04:49:51.346Z,1002.494202
2022-07-31T04:50:45.998Z,1002.520996
2022-07-31T04:51:47.555Z,1002.485962
2022-07-31T04:52:51.010Z,1002.496582
2022-07-31T04:54:49.119Z,1002.569092
2022-07-31T04:55:50.331Z,1002.526123
2022-07-31T04:56:47.170Z,1002.633301
2022-07-31T04:57:50.934Z,1002.571472
2022-07-31T04:58:47.260Z,1002.560791
2022-07-31T04:59:59.433Z,1002.542358
2022-07-31T05:00:00.381Z,1002.542358
2022-07-31T05:00:01.356Z,1002.542358
2022-07-31T05:00:49.118Z,1002.483582
2022-07-31T05:01:47.119Z,1002.532043
2022-07-31T05:02:49.403Z,1002.56427
2022-07-31T05:04:54.342Z,1002.539917
2022-07-31T05:04:57.199Z,1002.539917
2022-07-31T05:05:49.352Z,1002.574951
2022-07-31T05:06:47.391Z,1002.537476
2022-07-31T05:07:49.566Z,1002.580444
2022-07-31T05:08:48.912Z,1002.550964
2022-07-31T05:09:46.727Z,1002.537476
2022-07-31T05:10:48.448Z,1002.580444
2022-07-31T05:11:45.121Z,1002.574951
2022-07-31T05:12:50.063Z,1002.585571
2022-07-31T05:14:51.893Z,1002.532043
2022-07-31T05:16:23.040Z,1002.540955
2022-07-31T05:19:13.653Z,1002.556091
2022-07-31T05:19:14.530Z,1002.556091
2022-07-31T05:19:52.966Z,1002.612427
2022-07-31T05:20:51.968Z,1002.583191
2022-07-31T05:21:55.627Z,1002.593933
2022-07-31T05:22:50.228Z,1002.529358
2022-07-31T05:24:49.898Z,1002.57959
2022-07-31T05:25:52.024Z,1002.515076
2022-07-31T05:26:50.161Z,1002.536377
2022-07-31T05:27:53.992Z,1002.549744
2022-07-31T05:29:48.290Z,1002.624695
2022-07-31T05:30:50.335Z,1002.5979
2022-07-31T05:31:59.356Z,1002.519897
2022-07-31T05:31:59.523Z,1002.519897
2022-07-31T05:31:59.583Z,1002.519897
2022-07-31T05:32:48.314Z,1002.616394
2022-07-31T05:33:51.114Z,1002.541565
2022-07-31T05:34:48.376Z,1002.5979
2022-07-31T05:35:52.977Z,1002.600342
2022-07-31T05:36:48.351Z,1002.610962
2022-07-31T05:37:54.014Z,1002.567993
2022-07-31T05:39:53.764Z,1002.640442
2022-07-31T05:40:49.913Z,1002.661804
2022-07-31T05:41:47.484Z,1002.589355
2022-07-31T05:42:52.095Z,1002.57312
2022-07-31T05:43:46.354Z,1002.608215
2022-07-31T05:44:50.143Z,1002.683411
2022-07-31T05:45:45.536Z,1002.705017
2022-07-31T05:46:47.019Z,1002.675537
2022-07-31T05:47:43.488Z,1002.669983
2022-07-31T05:48:51.569Z,1002.777161
2022-07-31T05:49:51.033Z,1002.683411
2022-07-31T05:50:47.215Z,1002.675171
2022-07-31T05:51:53.637Z,1002.667236
2022-07-31T05:52:47.443Z,1002.720886
2022-07-31T05:54:45.817Z,1002.755554
2022-07-31T05:55:46.587Z,1002.685852
2022-07-31T05:56:43.006Z,1002.712646
2022-07-31T05:57:45.045Z,1002.659058
2022-07-31T05:58:41.532Z,1002.685852
2022-07-31T05:59:42.715Z,1002.720886
2022-07-31T06:00:40.727Z,1002.62439
2022-07-31T06:02:34.938Z,1002.539063
2022-07-31T06:03:14.856Z,1002.609192
2022-07-31T06:05:11.105Z,1002.582642
2022-07-31T06:06:11.437Z,1002.63623
2022-07-31T06:06:17.042Z,1002.63623
2022-07-31T06:07:13.489Z,1002.68158
2022-07-31T06:08:10.933Z,1002.611877
2022-07-31T06:09:12.262Z,1002.665466
2022-07-31T06:10:07.959Z,1002.649353
2022-07-31T06:11:07.961Z,1002.641418
2022-07-31T06:12:04.823Z,1002.659973
2022-07-31T06:13:04.675Z,1002.617004
2022-07-31T06:13:59.889Z,1002.606384
2022-07-31T06:15:00.043Z,1002.69751
2022-07-31T06:15:55.764Z,1002.665161
2022-07-31T06:16:58.364Z,1002.638428
2022-07-31T06:17:51.668Z,1002.654541
2022-07-31T06:19:51.225Z,1002.582336
2022-07-31T06:20:53.933Z,1002.561035
2022-07-31T06:21:48.571Z,1002.628052
2022-07-31T06:22:49.806Z,1002.56134
2022-07-31T06:24:49.542Z,1002.60968
2022-07-31T06:25:42.389Z,1002.542664
2022-07-31T06:26:43.594Z,1002.556396
2022-07-31T06:27:38.914Z,1002.508301
2022-07-31T06:29:40.813Z,1002.492371
2022-07-31T06:29:42.320Z,1002.492371
2022-07-31T06:30:39.740Z,1002.444214
2022-07-31T06:31:33.979Z,1002.513916
2022-07-31T06:32:36.624Z,1002.508667
2022-07-31T06:34:30.089Z,1002.530212
2022-07-31T06:35:25.496Z,1002.535645
2022-07-31T06:36:26.238Z,1002.554504
2022-07-31T06:37:22.137Z,1002.517029
2022-07-31T06:38:23.325Z,1002.648438
2022-07-31T06:39:19.708Z,1002.587036
2022-07-31T06:40:22.264Z,1002.512024
2022-07-31T06:41:16.708Z,1002.53064
2022-07-31T06:42:18.361Z,1002.608582
2022-07-31T06:43:11.944Z,1002.573608
2022-07-31T06:45:10.802Z,1002.662292
2022-07-31T06:46:06.239Z,1002.637939
2022-07-31T06:47:43.210Z,1002.614075
2022-07-31T06:48:23.361Z,1002.496094
2022-07-31T06:49:29.477Z,1002.506958
2022-07-31T06:50:24.804Z,1002.490845
2022-07-31T06:51:31.767Z,1002.520142
2022-07-31T06:51:31.939Z,1002.520142
2022-07-31T06:52:23.654Z,1002.469299
2022-07-31T06:53:19.594Z,1002.504089
2022-07-31T06:54:21.358Z,1002.504089
2022-07-31T06:54:26.808Z,1002.504089
2022-07-31T06:55:16.505Z,1002.512268
2022-07-31T06:56:16.275Z,1002.504089
2022-07-31T06:57:11.959Z,1002.504089
2022-07-31T06:58:09.337Z,1002.632629
2022-07-31T07:00:19.647Z,1002.512024
2022-07-31T07:00:19.710Z,1002.512024
2022-07-31T07:00:20.068Z,1002.512024
2022-07-31T07:01:07.546Z,1002.533569
2022-07-31T07:02:10.541Z,1002.47467
2022-07-31T07:02:18.819Z,1002.455811
2022-07-31T07:03:15.564Z,1002.461243
2022-07-31T07:05:10.186Z,1002.501709
2022-07-31T07:06:11.132Z,1002.514832
2022-07-31T07:07:07.202Z,1002.544556
2022-07-31T07:08:08.434Z,1002.528381
2022-07-31T07:09:01.076Z,1002.520142
2022-07-31T07:10:03.378Z,1002.539063
2022-07-31T07:10:57.602Z,1002.520142
2022-07-31T07:11:59.621Z,1002.485413
2022-07-31T07:12:52.362Z,1002.458618
2022-07-31T07:14:48.820Z,1002.47467
2022-07-31T07:15:50.921Z,1002.388855
2022-07-31T07:16:45.623Z,1002.426331
2022-07-31T07:17:47.829Z,1002.391235
2022-07-31T07:18:42.096Z,1002.410156
2022-07-31T07:19:44.224Z,1002.428833
2022-07-31T07:20:37.887Z,1002.455627
2022-07-31T07:21:48.205Z,1002.434082
2022-07-31T07:22:40.689Z,1002.552002
2022-07-31T07:23:42.897Z,1002.552002
2022-07-31T07:24:35.187Z,1002.474365
2022-07-31T07:26:20.094Z,1002.571106
2022-07-31T07:26:59.183Z,1002.482666
2022-07-31T07:27:57.308Z,1002.485596
2022-07-31T07:28:55.774Z,1002.496277
2022-07-31T07:29:50.973Z,1002.455811
2022-07-31T07:30:50.477Z,1002.487915
2022-07-31T07:31:46.884Z,1002.447754
2022-07-31T07:32:47.288Z,1002.469055
2022-07-31T07:34:43.354Z,1002.412476
2022-07-31T07:35:37.814Z,1002.412476
2022-07-31T07:36:37.655Z,1002.460693
2022-07-31T07:37:32.215Z,1002.39093
2022-07-31T07:37:38.832Z,1002.39093
2022-07-31T07:38:32.516Z,1002.433899
2022-07-31T07:40:29.933Z,1002.452942
2022-07-31T07:41:22.394Z,1002.43158
2022-07-31T07:42:24.208Z,1002.35907
2022-07-31T07:43:16.947Z,1002.377991
2022-07-31T07:45:12.175Z,1002.385864
2022-07-31T07:46:14.498Z,1002.332214
2022-07-31T07:47:07.085Z,1002.302979
2022-07-31T07:48:10.006Z,1002.257202
2022-07-31T07:50:05.021Z,1002.319092
2022-07-31T07:51:01.235Z,1002.195618
2022-07-31T07:52:01.679Z,1002.238586
2022-07-31T07:52:56.414Z,1002.211792
2022-07-31T07:54:55.856Z,1002.174316
2022-07-31T07:55:48.295Z,1002.18219
2022-07-31T07:56:46.508Z,1002.198303
2022-07-31T07:57:47.581Z,1002.160767
2022-07-31T07:58:39.964Z,1002.233337
2022-07-31T07:59:39.704Z,1002.203735
2022-07-31T08:00:35.015Z,1002.230652
2022-07-31T08:01:34.354Z,1002.195801
2022-07-31T08:02:30.190Z,1002.222656
2022-07-31T08:03:49.099Z,1002.179688
2022-07-31T08:03:49.801Z,1002.179688
2022-07-31T08:03:50.185Z,1002.179688
2022-07-31T08:04:28.316Z,1002.281738
2022-07-31T08:05:23.125Z,1002.246826
2022-07-31T08:06:20.219Z,1002.255005
2022-07-31T08:07:19.955Z,1002.246826
2022-07-31T08:08:59.135Z,1002.279053
2022-07-31T08:09:39.461Z,1002.182983
2022-07-31T08:10:38.562Z,1002.277039
2022-07-31T08:11:35.158Z,1002.217957
2022-07-31T08:12:35.621Z,1002.185486
2022-07-31T08:13:30.797Z,1002.171814
2022-07-31T08:15:29.569Z,1002.203918
2022-07-31T08:16:24.252Z,1002.195923
2022-07-31T08:17:23.910Z,1002.206726
2022-07-31T08:18:19.169Z,1002.104675
2022-07-31T08:20:12.697Z,1002.099243
2022-07-31T08:21:09.566Z,1002.08313
2022-07-31T08:22:12.634Z,1002.120605
2022-07-31T08:23:04.748Z,1002.155396
2022-07-31T08:24:59.347Z,1002.032043
2022-07-31T08:25:05.769Z,1002.032043
2022-07-31T08:25:59.109Z,1002.048096
2022-07-31T08:26:54.806Z,1002.126099
2022-07-31T08:27:54.693Z,1002.158264
2022-07-31T08:29:51.254Z,1002.150085
2022-07-31T08:30:49.406Z,1002.160767
2022-07-31T08:31:49.531Z,1002.169067
2022-07-31T08:32:44.069Z,1002.195801
2022-07-31T08:33:44.377Z,1002.214478
2022-07-31T08:34:43.438Z,1002.249512
2022-07-31T08:35:44.860Z,1002.187683
2022-07-31T08:35:50.794Z,1002.187683
2022-07-31T08:36:40.231Z,1002.249512
2022-07-31T08:37:51.246Z,1002.28717
2022-07-31T08:37:51.788Z,1002.28717
2022-07-31T08:37:57.591Z,1002.28717
2022-07-31T08:38:35.600Z,1002.201416
2022-07-31T08:40:34.950Z,1002.199036
2022-07-31T08:40:43.037Z,1002.199036
2022-07-31T08:42:29.076Z,1002.236816
2022-07-31T08:44:00.909Z,1002.290527
2022-07-31T08:44:02.807Z,1002.290527
2022-07-31T08:45:10.224Z,1002.242371
2022-07-31T08:46:11.459Z,1002.322876
2022-07-31T08:47:09.546Z,1002.274536
2022-07-31T08:48:07.293Z,1002.271851
2022-07-31T08:50:04.786Z,1002.309387
2022-07-31T08:51:05.534Z,1002.338745
2022-07-31T08:52:02.094Z,1002.306396
2022-07-31T08:53:02.977Z,1002.306396
2022-07-31T08:55:03.805Z,1002.295654
2022-07-31T08:55:58.146Z,1002.207214
2022-07-31T08:56:59.013Z,1002.268738
2022-07-31T08:57:55.426Z,1002.207214
2022-07-31T08:59:52.844Z,1002.22583
2022-07-31T09:00:51.655Z,1002.263428
2022-07-31T09:01:53.375Z,1002.244751
2022-07-31T09:02:49.963Z,1002.223389
2022-07-31T09:04:52.148Z,1002.191223
2022-07-31T09:05:52.275Z,1002.193848
2022-07-31T09:06:46.666Z,1002.231506
2022-07-31T09:07:50.779Z,1002.210022
2022-07-31T09:09:51.846Z,1002.167175
2022-07-31T09:09:52.573Z,1002.167175
2022-07-31T09:10:50.362Z,1002.156494
2022-07-31T09:11:43.563Z,1002.170105
2022-07-31T09:12:49.942Z,1002.164795
2022-07-31T09:14:48.179Z,1002.145752
2022-07-31T09:15:42.545Z,1002.188721
2022-07-31T09:16:44.812Z,1002.137939
2022-07-31T09:17:41.540Z,1002.167358
2022-07-31T09:17:52.519Z,1002.167358
2022-07-31T09:17:54.263Z,1002.167358
2022-07-31T09:19:51.913Z,1002.191772
2022-07-31T09:19:52.956Z,1002.191772
2022-07-31T09:19:53.475Z,1002.191772
2022-07-31T09:21:42.983Z,1002.143433
2022-07-31T09:22:23.884Z,1002.065369
2022-07-31T09:23:22.941Z,1002.086853
2022-07-31T09:25:20.704Z,1002.129822
2022-07-31T09:26:22.746Z,1002.145935
2022-07-31T09:27:19.285Z,1002.105835
2022-07-31T09:28:24.999Z,1002.145935
2022-07-31T09:29:17.255Z,1002.11377
2022-07-31T09:30:19.623Z,1002.140625
2022-07-31T09:31:16.033Z,1002.143433
2022-07-31T09:32:18.332Z,1002.199707
2022-07-31T09:33:14.934Z,1002.183594
2022-07-31T09:34:18.099Z,1002.095154
2022-07-31T09:35:14.531Z,1002.116577
2022-07-31T09:36:16.542Z,1002.111267
2022-07-31T09:37:14.496Z,1002.205017
2022-07-31T09:38:14.671Z,1002.16748
2022-07-31T09:40:12.038Z,1002.18103
2022-07-31T09:41:20.397Z,1002.135315
2022-07-31T09:41:56.636Z,1002.135315
2022-07-31T09:41:56.926Z,1002.135315
2022-07-31T09:42:16.873Z,1002.240173
2022-07-31T09:43:14.935Z,1002.213257
2022-07-31T09:45:12.587Z,1002.140625
2022-07-31T09:46:08.427Z,1002.105835
2022-07-31T09:47:10.300Z,1002.181091
2022-07-31T09:48:06.737Z,1002.191772
2022-07-31T09:50:04.909Z,1002.164917
2022-07-31T09:51:06.048Z,1002.202515
2022-07-31T09:52:02.358Z,1002.097656
2022-07-31T09:53:03.071Z,1002.170288
2022-07-31T09:55:03.123Z,1002.175598
2022-07-31T09:55:15.689Z,1002.175598
2022-07-31T09:56:00.251Z,1002.111267
2022-07-31T09:56:56.820Z,1002.132629
2022-07-31T09:57:57.996Z,1002.086853
2022-07-31T09:58:54.377Z,1002.154236
2022-07-31T10:00:00.395Z,1002.188904
2022-07-31T10:00:54.674Z,1002.18103
2022-07-31T10:01:57.716Z,1002.095154
2022-07-31T10:02:52.101Z,1002.199707
2022-07-31T10:04:50.283Z,1002.178101
2022-07-31T10:05:54.459Z,1002.175598
2022-07-31T10:06:48.700Z,1002.129822
2022-07-31T10:07:52.241Z,1002.129822
2022-07-31T10:08:45.786Z,1002.129822
2022-07-31T10:10:43.750Z,1002.095154
2022-07-31T10:11:44.508Z,1002.102966
2022-07-31T10:12:41.110Z,1002.086853
2022-07-31T10:14:19.670Z,1002.116577
2022-07-31T10:14:59.002Z,1002.054688
2022-07-31T10:15:57.515Z,1002.014587
2022-07-31T10:16:56.920Z,1002.060059
2022-07-31T10:17:51.612Z,1002.017212
2022-07-31T10:19:47.706Z,1002.03064
2022-07-31T10:20:46.549Z,1002.038574
2022-07-31T10:21:41.884Z,1002.073669
2022-07-31T10:22:41.619Z,1002.108459
2022-07-31T10:23:39.802Z,1002.022522
2022-07-31T10:25:34.031Z,1002.038574
2022-07-31T10:26:59.196Z,1002.065491
2022-07-31T10:27:03.896Z,1002.065491
2022-07-31T10:27:32.030Z,1001.979553
2022-07-31T10:28:27.693Z,1002.02533
2022-07-31T10:29:26.988Z,1002.022522
2022-07-31T10:30:26.077Z,1002.02002
2022-07-31T10:30:28.394Z,1002.02002
2022-07-31T10:31:23.962Z,1002.070801
2022-07-31T10:32:20.763Z,1001.979553
2022-07-31T10:33:42.413Z,1001.909668
2022-07-31T10:33:43.657Z,1001.909668
2022-07-31T10:33:46.192Z,1001.909668
2022-07-31T10:35:19.910Z,1001.936584
2022-07-31T10:36:12.822Z,1001.914978
2022-07-31T10:37:14.935Z,1001.864197
2022-07-31T10:38:10.365Z,1001.882813
2022-07-31T10:40:05.395Z,1001.888184
2022-07-31T10:41:07.781Z,1001.950134
2022-07-31T10:42:00.770Z,1001.850647
2022-07-31T10:43:03.888Z,1001.877502
2022-07-31T10:43:56.478Z,1001.934082
2022-07-31T10:44:58.808Z,1001.850647
2022-07-31T10:45:53.063Z,1001.858826
2022-07-31T10:46:52.278Z,1001.748596
2022-07-31T10:47:48.717Z,1001.780762
2022-07-31T10:48:50.382Z,1001.77002
2022-07-31T10:50:45.872Z,1001.767334
2022-07-31T10:51:38.767Z,1001.791382
2022-07-31T10:52:42.372Z,1001.856079
2022-07-31T10:53:50.948Z,1001.837402
2022-07-31T10:53:51.329Z,1001.837402
2022-07-31T10:54:36.528Z,1001.866699
2022-07-31T10:55:32.119Z,1001.778198
2022-07-31T10:56:35.446Z,1001.745911
2022-07-31T10:57:28.568Z,1001.767334
2022-07-31T10:58:31.429Z,1001.748352
2022-07-31T11:00:23.459Z,1001.820923
2022-07-31T11:00:30.031Z,1001.820923
2022-07-31T11:01:25.979Z,1001.707947
2022-07-31T11:02:21.595Z,1001.791077
2022-07-31T11:03:19.549Z,1001.766846
2022-07-31T11:04:19.794Z,1001.710449
2022-07-31T11:05:15.817Z,1001.691711
2022-07-31T11:06:15.469Z,1001.726563
2022-07-31T11:07:52.569Z,1001.780151
2022-07-31T11:08:32.508Z,1001.747803
2022-07-31T11:09:30.111Z,1001.731567
2022-07-31T11:10:30.221Z,1001.702026
2022-07-31T11:11:26.310Z,1001.688354
2022-07-31T11:12:26.067Z,1001.693665
2022-07-31T11:13:21.512Z,1001.73407
2022-07-31T11:13:33.518Z,1001.73407
2022-07-31T11:13:33.635Z,1001.73407